Time;durP1;ratioP1;P1;durP2;ratioP2;P2;SDS_P1;SDS_P2;PMS_P1;PMS_P2;Temp;Humidity;BMP_temperature;BMP_pressure;BME280_temperature;BME280_humidity;BME280_pressure;Samples;Min_cycle;Max_cycle;Signal;HPM_P1;HPM_P2
2022/09/17 00:02:01;;;;;;;0.73;0.70;;;11.50;99.90;;;;;;5020260;28;20235;-80
2022/09/17 00:04:27;;;;;;;2.38;0.77;;;11.60;99.90;;;;;;5021532;28;20052;-81
2022/09/17 00:06:52;;;;;;;1.05;0.60;;;11.60;99.90;;;;;;5023572;28;20908;-81
2022/09/17 00:09:18;;;;;;;0.55;0.55;;;11.60;99.90;;;;;;5023648;28;20112;-82
2022/09/17 00:11:43;;;;;;;1.20;1.02;;;11.60;99.90;;;;;;5019513;28;20033;-82
2022/09/17 00:14:14;;;;;;;3.80;0.82;;;11.60;99.90;;;;;;5019521;28;20391;-83
2022/09/17 00:16:42;;;;;;;2.30;1.35;;;11.70;99.90;;;;;;5024658;28;20028;-82
2022/09/17 00:19:14;;;;;;;0.55;0.50;;;11.70;99.90;;;;;;5027229;28;20053;-84
2022/09/17 00:21:41;;;;;;;1.38;0.68;;;11.70;99.90;;;;;;5031361;28;20060;-82
2022/09/17 00:24:09;;;;;;;0.60;0.60;;;11.60;99.90;;;;;;5028418;28;20416;-80
2022/09/17 00:26:35;;;;;;;0.60;0.60;;;11.60;99.90;;;;;;5029302;28;20075;-80
2022/09/17 00:29:01;;;;;;;1.17;0.75;;;11.60;99.90;;;;;;5020493;28;20053;-81
2022/09/17 00:31:28;;;;;;;4.60;0.90;;;11.60;99.90;;;;;;5028236;28;20476;-80
2022/09/17 00:33:54;;;;;;;0.50;0.50;;;11.60;99.90;;;;;;5018497;28;20116;-80
2022/09/17 00:36:20;;;;;;;3.17;1.10;;;11.60;99.90;;;;;;5028302;28;20116;-83
2022/09/17 00:38:55;;;;;;;1.08;0.95;;;11.50;99.90;;;;;;5027758;28;20030;-81
2022/09/17 00:41:21;;;;;;;0.95;0.80;;;11.60;99.90;;;;;;5023687;28;20029;-79
2022/09/17 00:43:50;;;;;;;7.13;0.90;;;11.60;99.90;;;;;;5020946;28;20083;-80
2022/09/17 00:46:33;;;;;;;1.30;0.80;;;11.60;99.90;;;;;;5028114;28;20088;-84
2022/09/17 00:49:03;;;;;;;1.80;0.73;;;11.60;99.90;;;;;;5017208;28;20040;-80
2022/09/17 00:51:37;;;;;;;2.00;0.55;;;11.60;99.90;;;;;;5029133;28;20049;-82
2022/09/17 00:54:06;;;;;;;0.70;0.63;;;11.70;99.90;;;;;;5029046;28;20033;-80
2022/09/17 00:56:34;;;;;;;0.70;0.60;;;11.70;99.90;;;;;;5024678;28;20025;-81
2022/09/17 00:59:01;;;;;;;1.05;0.70;;;11.70;99.90;;;;;;5019878;28;20165;-81
2022/09/17 01:01:26;;;;;;;0.95;0.40;;;11.70;99.90;;;;;;5027587;28;20018;-79
2022/09/17 01:03:52;;;;;;;2.28;1.38;;;11.80;99.90;;;;;;5025496;28;20033;-84
2022/09/17 01:06:27;;;;;;;5.22;0.82;;;11.80;99.90;;;;;;5029907;28;20080;-82
2022/09/17 01:08:59;;;;;;;1.90;0.68;;;11.80;99.90;;;;;;5027686;28;20726;-80
2022/09/17 01:11:49;;;;;;;1.02;0.88;;;11.80;99.90;;;;;;5028774;28;20136;-82
2022/09/17 01:14:18;;;;;;;2.25;0.90;;;11.80;99.90;;;;;;5023378;28;20029;-81
2022/09/17 01:17:12;;;;;;;0.70;0.63;;;11.80;99.90;;;;;;5029560;28;20060;-81
2022/09/17 01:20:08;;;;;;;1.15;1.05;;;11.90;99.90;;;;;;5015951;28;20048;-79
2022/09/17 01:23:03;;;;;;;1.10;0.80;;;11.90;99.90;;;;;;5028447;28;20452;-81
2022/09/17 01:25:55;;;;;;;2.20;1.20;;;11.90;99.90;;;;;;5001716;28;20029;-84
2022/09/17 01:28:33;;;;;;;2.22;2.03;;;12.00;99.90;;;;;;5014509;28;20099;-81
2022/09/17 01:31:01;;;;;;;2.50;1.75;;;11.90;99.90;;;;;;5028058;28;20515;-81
2022/09/17 01:33:44;;;;;;;3.63;1.90;;;12.00;99.90;;;;;;5022076;28;20037;-82
2022/09/17 01:36:25;;;;;;;3.30;2.60;;;12.00;99.90;;;;;;5022964;28;20458;-81
2022/09/17 01:38:58;;;;;;;3.83;2.40;;;12.00;99.90;;;;;;5018211;28;20029;-83
2022/09/17 01:41:44;;;;;;;7.20;1.58;;;12.10;99.90;;;;;;5026312;28;20120;-80
2022/09/17 01:44:33;;;;;;;7.00;1.77;;;12.00;99.90;;;;;;5021751;28;20117;-81
2022/09/17 01:47:21;;;;;;;1.30;1.15;;;12.00;99.90;;;;;;5008952;28;20029;-82
2022/09/17 01:49:52;;;;;;;2.38;1.90;;;12.00;99.90;;;;;;5012486;28;20041;-81
2022/09/17 01:52:18;;;;;;;4.85;2.35;;;12.00;99.90;;;;;;5027726;28;20108;-82
2022/09/17 01:54:49;;;;;;;1.98;1.75;;;12.10;99.90;;;;;;5023164;28;20033;-81
2022/09/17 01:57:20;;;;;;;3.67;1.80;;;12.10;99.90;;;;;;5027122;28;20033;-82
2022/09/17 02:00:00;;;;;;;2.45;1.67;;;12.10;99.90;;;;;;5021232;28;20315;-80
2022/09/17 02:02:28;;;;;;;4.93;1.42;;;12.10;99.90;;;;;;5020202;28;20037;-80
2022/09/17 02:05:00;;;;;;;2.25;1.80;;;12.00;99.90;;;;;;5027558;28;20052;-81
2022/09/17 02:07:28;;;;;;;1.95;1.70;;;11.90;99.90;;;;;;5029142;28;20060;-81
2022/09/17 02:10:05;;;;;;;4.20;2.28;;;11.80;99.90;;;;;;5025497;28;20122;-80
2022/09/17 02:12:40;;;;;;;2.50;1.88;;;11.80;99.90;;;;;;5023232;28;20033;-81
2022/09/17 02:15:16;;;;;;;2.85;1.70;;;11.80;99.90;;;;;;5024014;28;20117;-80
2022/09/17 02:17:50;;;;;;;3.10;2.28;;;11.80;99.90;;;;;;5023315;28;20039;-81
2022/09/17 02:20:17;;;;;;;1.63;1.40;;;11.90;99.90;;;;;;5026343;28;20052;-81
2022/09/17 02:22:50;;;;;;;1.17;1.13;;;11.90;99.90;;;;;;5025528;28;20228;-83
2022/09/17 02:25:51;;;;;;;1.30;1.15;;;11.80;99.90;;;;;;5022439;28;20079;-81
2022/09/17 02:28:32;;;;;;;0.85;0.80;;;11.70;99.90;;;;;;5016291;28;20112;-83
2022/09/17 02:30:57;;;;;;;0.82;0.73;;;11.70;99.90;;;;;;5025039;28;20480;-80
2022/09/17 02:33:24;;;;;;;3.97;1.10;;;11.70;99.90;;;;;;5023753;28;20049;-81
2022/09/17 02:35:50;;;;;;;0.40;0.40;;;11.70;99.90;;;;;;5021733;28;20041;-84
2022/09/17 02:38:25;;;;;;;0.50;0.50;;;11.70;99.90;;;;;;5026321;28;20029;-83
2022/09/17 02:41:15;;;;;;;0.68;0.50;;;11.70;99.90;;;;;;5022765;28;20033;-82
2022/09/17 02:43:59;;;;;;;0.80;0.80;;;11.80;99.90;;;;;;5022535;28;20026;-81
2022/09/17 02:46:45;;;;;;;1.17;1.05;;;11.80;99.90;;;;;;5024765;28;20028;-82
2022/09/17 02:49:26;;;;;;;2.08;1.08;;;11.90;99.90;;;;;;5024297;28;20036;-84
2022/09/17 02:52:21;;;;;;;0.80;0.80;;;11.90;99.90;;;;;;5014840;28;20696;-81
2022/09/17 02:54:53;;;;;;;0.50;0.50;;;11.90;99.90;;;;;;5016836;28;20128;-84
2022/09/17 02:57:29;;;;;;;1.15;0.93;;;11.80;99.90;;;;;;5022217;28;20037;-81
2022/09/17 03:00:08;;;;;;;0.70;0.70;;;11.80;99.90;;;;;;5015181;28;20168;-83
2022/09/17 03:02:44;;;;;;;0.60;0.60;;;11.80;99.90;;;;;;5026540;28;20546;-83
2022/09/17 03:05:10;;;;;;;1.25;0.90;;;11.90;99.90;;;;;;5021313;28;20076;-85
2022/09/17 03:07:36;;;;;;;0.98;0.82;;;12.00;99.90;;;;;;5022834;28;20033;-84
2022/09/17 03:10:03;;;;;;;3.63;1.13;;;11.90;99.90;;;;;;5018745;28;20092;-82
2022/09/17 03:12:29;;;;;;;1.27;1.17;;;12.00;99.90;;;;;;5018485;28;20480;-83
2022/09/17 03:14:54;;;;;;;2.20;1.00;;;11.90;99.90;;;;;;5023907;28;20120;-85
2022/09/17 03:17:20;;;;;;;2.08;1.08;;;12.00;99.90;;;;;;5023395;28;20041;-77
2022/09/17 03:19:48;;;;;;;2.35;0.70;;;12.00;99.90;;;;;;5016740;28;20045;-83
2022/09/17 03:22:14;;;;;;;2.67;1.25;;;12.00;99.90;;;;;;5025816;28;20048;-80
2022/09/17 03:24:39;;;;;;;1.02;0.82;;;12.00;99.90;;;;;;5023671;28;20404;-79
2022/09/17 03:27:05;;;;;;;0.70;0.70;;;12.00;99.90;;;;;;5024429;28;20490;-83
2022/09/17 03:29:30;;;;;;;1.27;0.85;;;12.00;99.90;;;;;;5017133;28;20041;-80
2022/09/17 03:31:56;;;;;;;1.75;1.08;;;12.00;99.90;;;;;;5022186;28;20478;-80
2022/09/17 03:34:22;;;;;;;1.63;0.63;;;12.10;99.90;;;;;;5021908;28;20022;-81
2022/09/17 03:36:48;;;;;;;0.80;0.80;;;12.10;99.90;;;;;;5021862;28;20168;-80
2022/09/17 03:39:13;;;;;;;1.75;0.90;;;12.00;99.90;;;;;;5026636;28;20564;-79
2022/09/17 03:41:39;;;;;;;2.90;1.00;;;12.10;99.90;;;;;;5019997;28;20044;-81
2022/09/17 03:44:05;;;;;;;2.47;1.17;;;12.10;99.90;;;;;;5025864;28;20022;-79
2022/09/17 03:46:31;;;;;;;0.98;0.68;;;12.10;99.90;;;;;;5022346;28;20021;-83
2022/09/17 03:48:56;;;;;;;1.30;0.80;;;12.10;99.90;;;;;;5024921;28;20024;-81
2022/09/17 03:51:22;;;;;;;1.02;0.60;;;12.10;99.90;;;;;;5024193;28;20025;-81
2022/09/17 03:53:47;;;;;;;6.43;2.20;;;12.10;99.90;;;;;;5022816;28;20036;-79
2022/09/17 03:56:13;;;;;;;1.10;1.00;;;12.10;99.90;;;;;;5019421;28;20383;-80
2022/09/17 03:58:38;;;;;;;1.85;0.90;;;12.10;99.90;;;;;;5022927;28;20392;-81
2022/09/17 04:01:05;;;;;;;6.15;1.65;;;11.90;99.90;;;;;;5025642;28;20032;-80
2022/09/17 04:03:31;;;;;;;1.23;1.00;;;11.90;99.90;;;;;;5023594;28;20022;-81
2022/09/17 04:05:56;;;;;;;1.02;0.93;;;11.80;99.90;;;;;;5008070;28;20034;-81
2022/09/17 04:08:22;;;;;;;0.75;0.73;;;11.80;99.90;;;;;;5025779;28;20484;-82
2022/09/17 04:10:47;;;;;;;1.17;0.70;;;11.70;99.90;;;;;;5018448;28;20051;-79
2022/09/17 04:13:15;;;;;;;2.40;1.15;;;11.60;99.90;;;;;;5024497;28;20139;-79
2022/09/17 04:15:40;;;;;;;1.02;0.80;;;11.60;99.90;;;;;;5020427;28;20026;-78
2022/09/17 04:18:06;;;;;;;0.90;0.80;;;11.60;99.90;;;;;;5023537;28;20055;-79
2022/09/17 04:20:32;;;;;;;1.25;1.05;;;11.60;99.90;;;;;;5022351;28;20484;-79
2022/09/17 04:22:58;;;;;;;1.67;1.17;;;11.50;99.90;;;;;;5023684;28;20032;-78
2022/09/17 04:25:23;;;;;;;1.17;0.80;;;11.50;99.90;;;;;;5017571;28;20026;-78
2022/09/17 04:27:49;;;;;;;3.63;1.25;;;11.60;99.90;;;;;;5017927;28;20040;-79
2022/09/17 04:30:15;;;;;;;1.98;0.88;;;11.60;99.90;;;;;;5017981;28;20026;-79
2022/09/17 04:32:43;;;;;;;1.58;0.95;;;11.60;99.90;;;;;;5021758;28;20522;-77
2022/09/17 04:35:09;;;;;;;1.50;0.98;;;11.70;99.90;;;;;;5024811;28;20033;-78
2022/09/17 04:37:35;;;;;;;4.20;1.85;;;11.70;99.90;;;;;;5018090;28;20036;-78
2022/09/17 04:40:01;;;;;;;1.45;1.00;;;11.60;99.90;;;;;;5021845;28;20524;-80
2022/09/17 04:42:27;;;;;;;1.65;0.80;;;11.60;99.90;;;;;;5024427;28;20049;-79
2022/09/17 04:44:53;;;;;;;0.82;0.82;;;11.60;99.90;;;;;;5015598;28;20053;-79
2022/09/17 04:47:18;;;;;;;0.93;0.93;;;11.60;99.90;;;;;;5018678;28;20027;-80
2022/09/17 04:49:44;;;;;;;0.50;0.50;;;11.70;99.90;;;;;;5019975;28;20504;-80
2022/09/17 04:52:09;;;;;;;1.67;1.05;;;11.70;99.90;;;;;;5025637;28;20029;-80
2022/09/17 04:54:34;;;;;;;1.65;1.00;;;11.60;99.90;;;;;;5023764;28;20026;-80
2022/09/17 04:57:00;;;;;;;1.15;0.82;;;11.60;99.90;;;;;;5023467;28;20214;-81
2022/09/17 04:59:28;;;;;;;5.78;1.08;;;11.60;99.90;;;;;;5024587;28;20026;-80
2022/09/17 05:01:54;;;;;;;1.02;0.98;;;11.70;99.90;;;;;;5017847;28;20622;-79
2022/09/17 05:04:19;;;;;;;1.27;1.17;;;11.70;99.90;;;;;;5020344;28;20477;-78
2022/09/17 05:06:45;;;;;;;1.15;0.80;;;11.60;99.90;;;;;;5026718;28;20025;-80
2022/09/17 05:09:11;;;;;;;2.22;1.15;;;11.60;99.90;;;;;;5022007;28;20025;-81
2022/09/17 05:11:36;;;;;;;5.40;0.85;;;11.70;99.90;;;;;;5027507;28;20133;-80
2022/09/17 05:14:02;;;;;;;1.75;1.52;;;11.80;99.90;;;;;;5026409;28;20431;-81
2022/09/17 05:16:27;;;;;;;1.88;0.50;;;11.80;99.90;;;;;;5028044;28;20079;-80
2022/09/17 05:18:53;;;;;;;1.98;0.80;;;11.80;99.90;;;;;;5026884;28;20481;-79
2022/09/17 05:21:19;;;;;;;1.35;1.23;;;11.80;99.90;;;;;;5021240;28;20094;-82
2022/09/17 05:23:46;;;;;;;1.60;0.90;;;11.80;99.90;;;;;;5024447;28;20026;-82
2022/09/17 05:26:12;;;;;;;0.85;0.77;;;11.80;99.90;;;;;;5025641;28;20037;-82
2022/09/17 05:28:38;;;;;;;0.88;0.77;;;11.90;99.90;;;;;;5023991;28;20092;-83
2022/09/17 05:31:03;;;;;;;1.35;0.82;;;12.00;99.90;;;;;;5022445;28;20029;-80
2022/09/17 05:33:29;;;;;;;2.47;0.90;;;12.00;99.90;;;;;;5028495;28;20030;-81
2022/09/17 05:35:54;;;;;;;4.97;1.33;;;12.10;99.90;;;;;;5017514;28;20170;-80
2022/09/17 05:38:20;;;;;;;1.13;0.93;;;12.10;99.90;;;;;;5015834;28;20040;-82
2022/09/17 05:40:46;;;;;;;10.20;1.17;;;12.20;99.90;;;;;;5023086;28;20572;-84
2022/09/17 05:43:11;;;;;;;1.08;0.82;;;12.30;99.90;;;;;;5024239;28;20455;-82
2022/09/17 05:45:37;;;;;;;0.60;0.60;;;12.20;99.90;;;;;;5025404;28;20069;-82
2022/09/17 05:48:05;;;;;;;1.95;1.77;;;12.40;99.90;;;;;;5025980;28;20030;-80
2022/09/17 05:50:31;;;;;;;1.80;1.27;;;12.30;99.90;;;;;;5023816;28;20049;-77
2022/09/17 05:53:01;;;;;;;0.63;0.63;;;12.30;99.90;;;;;;5023523;28;20430;-79
2022/09/17 05:55:27;;;;;;;0.82;0.63;;;12.20;99.90;;;;;;5025950;28;20061;-77
2022/09/17 05:57:52;;;;;;;1.63;0.90;;;12.20;99.90;;;;;;5019359;28;20062;-75
2022/09/17 06:00:18;;;;;;;1.10;0.90;;;12.30;99.90;;;;;;5022834;28;20033;-80
2022/09/17 06:02:43;;;;;;;2.42;1.10;;;12.30;99.90;;;;;;5025284;28;20030;-85
2022/09/17 06:05:09;;;;;;;1.00;0.90;;;12.50;99.90;;;;;;5025462;28;20033;-81
2022/09/17 06:07:35;;;;;;;2.05;1.13;;;12.60;99.90;;;;;;5019591;28;20480;-80
2022/09/17 06:10:02;;;;;;;3.15;1.45;;;12.50;99.90;;;;;;5022698;28;20026;-83
2022/09/17 06:12:28;;;;;;;3.10;0.95;;;12.50;99.90;;;;;;5033013;28;20036;-83
2022/09/17 06:14:53;;;;;;;2.83;0.95;;;12.80;99.90;;;;;;5023472;28;20030;-82
2022/09/17 06:17:19;;;;;;;3.10;0.77;;;12.70;99.90;;;;;;5021130;28;20076;-81
2022/09/17 06:19:44;;;;;;;3.47;1.70;;;12.60;99.90;;;;;;5026424;28;20124;-84
2022/09/17 06:22:10;;;;;;;6.05;1.67;;;12.70;99.90;;;;;;5040035;28;20029;-83
2022/09/17 06:24:35;;;;;;;1.13;1.02;;;12.80;99.90;;;;;;5022308;28;20044;-83
2022/09/17 06:27:01;;;;;;;6.35;1.60;;;12.80;99.90;;;;;;5025963;28;20065;-83
2022/09/17 06:29:26;;;;;;;3.47;1.00;;;12.70;99.90;;;;;;5027908;28;20018;-83
2022/09/17 06:31:52;;;;;;;4.13;1.15;;;12.80;99.90;;;;;;5025471;28;20593;-82
2022/09/17 06:34:18;;;;;;;4.85;1.10;;;12.80;99.90;;;;;;5024136;28;20029;-83
2022/09/17 06:36:44;;;;;;;1.25;0.85;;;12.90;99.90;;;;;;5011587;28;20034;-90
2022/09/17 06:39:10;;;;;;;1.73;1.15;;;12.90;99.90;;;;;;5026602;28;20028;-82
2022/09/17 06:41:36;;;;;;;3.05;1.63;;;13.00;99.90;;;;;;5026550;28;20030;-84
2022/09/17 06:44:02;;;;;;;0.60;0.60;;;13.00;99.90;;;;;;5018275;28;20628;-86
2022/09/17 06:46:30;;;;;;;4.05;1.30;;;13.00;99.90;;;;;;5022146;28;20029;-86
2022/09/17 06:48:56;;;;;;;1.23;1.13;;;13.00;99.90;;;;;;5026657;28;20452;-83
2022/09/17 06:51:22;;;;;;;1.10;0.90;;;12.90;99.90;;;;;;5020286;28;20089;-84
2022/09/17 06:53:47;;;;;;;1.17;0.88;;;12.90;99.90;;;;;;5026853;28;20037;-87
2022/09/17 06:56:14;;;;;;;2.63;1.05;;;13.00;99.90;;;;;;5021796;28;20025;-86
2022/09/17 06:58:42;;;;;;;1.45;0.88;;;12.90;99.90;;;;;;5028629;28;20524;-85
2022/09/17 07:01:10;;;;;;;3.35;1.45;;;12.80;99.90;;;;;;5027196;28;20037;-87
2022/09/17 07:03:36;;;;;;;4.20;1.63;;;13.00;99.90;;;;;;5023582;28;20044;-84
2022/09/17 07:06:02;;;;;;;1.30;0.82;;;12.90;99.90;;;;;;5027393;28;20025;-77
2022/09/17 07:08:28;;;;;;;2.10;1.08;;;12.80;99.90;;;;;;5021441;28;20031;-81
2022/09/17 07:10:59;;;;;;;5.43;1.50;;;12.90;99.90;;;;;;5023956;28;20107;-77
2022/09/17 07:13:25;;;;;;;;;;;12.90;99.90;;;;;;5018343;28;20029;-80
2022/09/17 07:15:57;;;;;;;1.40;1.15;;;12.90;99.90;;;;;;5022067;28;19916;-78
2022/09/17 07:18:22;;;;;;;4.05;0.93;;;12.90;99.90;;;;;;5015689;28;20080;-78
2022/09/17 07:20:59;;;;;;;5.45;0.95;;;13.00;99.90;;;;;;5024678;28;20107;-78
2022/09/17 07:23:27;;;;;;;5.40;0.85;;;13.00;99.90;;;;;;5014828;28;20055;-77
2022/09/17 07:25:58;;;;;;;2.22;1.15;;;13.00;99.90;;;;;;5023597;28;20029;-78
2022/09/17 07:28:25;;;;;;;10.90;1.58;;;13.20;99.90;;;;;;5012437;28;20075;-79
2022/09/17 07:30:54;;;;;;;1.92;0.80;;;13.30;99.90;;;;;;5023056;28;20033;-79
2022/09/17 07:33:26;;;;;;;7.53;1.65;;;13.50;99.90;;;;;;5023982;28;20398;-78
2022/09/17 07:36:04;;;;;;;2.33;1.20;;;13.60;99.90;;;;;;5025869;28;20061;-78
2022/09/17 07:38:30;;;;;;;2.28;0.98;;;13.60;99.90;;;;;;5022795;28;20052;-77
2022/09/17 07:41:00;;;;;;;9.05;3.53;;;13.50;99.90;;;;;;5024728;28;20032;-78
2022/09/17 07:43:28;;;;;;;2.13;0.90;;;13.40;99.90;;;;;;5025113;28;20032;-77
2022/09/17 07:45:59;;;;;;;5.50;1.45;;;13.20;99.90;;;;;;5019343;28;20318;-76
2022/09/17 07:48:25;;;;;;;;;;;13.20;99.90;;;;;;5022344;28;20026;-80
2022/09/17 07:50:51;;;;;;;0.85;0.85;;;13.50;99.90;;;;;;5022214;28;19910;-79
2022/09/17 07:53:17;;;;;;;1.60;0.88;;;13.60;99.90;;;;;;5024082;28;20499;-79
2022/09/17 07:55:50;;;;;;;2.25;0.68;;;13.50;99.90;;;;;;5022192;28;20026;-78
2022/09/17 07:58:15;;;;;;;8.02;1.20;;;13.50;99.90;;;;;;5021531;28;20088;-81
2022/09/17 08:00:41;;;;;;;3.35;1.30;;;13.50;99.90;;;;;;5021550;28;20029;-79
2022/09/17 08:03:08;;;;;;;1.35;0.90;;;13.40;99.90;;;;;;5024038;28;20421;-80
2022/09/17 08:05:34;;;;;;;1.40;0.77;;;13.70;99.90;;;;;;5016435;28;20020;-81
2022/09/17 08:08:00;;;;;;;2.08;0.70;;;13.80;99.90;;;;;;5023524;28;20109;-82
2022/09/17 08:10:26;;;;;;;3.03;1.55;;;13.70;99.90;;;;;;5026186;28;20095;-78
2022/09/17 08:12:56;;;;;;;0.88;0.70;;;13.60;99.90;;;;;;5016733;28;20025;-85
2022/09/17 08:15:22;;;;;;;9.63;1.00;;;13.80;99.90;;;;;;5017139;28;20116;-80
2022/09/17 08:17:48;;;;;;;2.78;0.73;;;13.80;99.90;;;;;;5022441;28;20068;-80
2022/09/17 08:20:15;;;;;;;4.78;1.17;;;13.80;99.90;;;;;;5024665;28;20065;-78
2022/09/17 08:22:46;;;;;;;4.30;1.38;;;13.90;99.90;;;;;;5026026;28;20033;-79
2022/09/17 08:25:12;;;;;;;1.85;0.60;;;14.00;99.90;;;;;;5016106;28;20037;-75
2022/09/17 08:27:37;;;;;;;0.82;0.55;;;14.10;99.90;;;;;;5019924;28;20030;-79
2022/09/17 08:30:04;;;;;;;8.48;0.73;;;14.40;99.90;;;;;;5019839;28;20033;-80
2022/09/17 08:32:30;;;;;;;2.83;0.85;;;14.30;99.90;;;;;;5015317;28;20025;-78
2022/09/17 08:34:56;;;;;;;0.98;0.82;;;14.50;99.90;;;;;;5015500;28;20384;-78
2022/09/17 08:37:21;;;;;;;0.90;0.47;;;14.80;99.90;;;;;;5022395;28;20092;-77
2022/09/17 08:39:47;;;;;;;1.35;0.75;;;14.90;99.90;;;;;;5021443;28;20137;-79
2022/09/17 08:42:48;;;;;;;1.15;0.68;;;14.60;99.90;;;;;;5024693;28;20026;-80
2022/09/17 08:45:17;;;;;;;4.88;1.83;;;15.00;99.90;;;;;;5028367;28;20037;-81
2022/09/17 08:47:45;;;;;;;1.75;1.05;;;14.90;99.90;;;;;;5030494;28;20614;-80
2022/09/17 08:50:31;;;;;;;5.55;1.00;;;14.70;99.90;;;;;;5031437;28;20040;-78
2022/09/17 08:53:10;;;;;;;4.00;1.45;;;14.50;99.90;;;;;;5029608;28;20037;-79
2022/09/17 08:56:06;;;;;;;9.85;1.20;;;14.60;99.90;;;;;;5022361;28;20049;-78
2022/09/17 08:58:36;;;;;;;4.28;1.02;;;14.50;99.90;;;;;;5029954;28;20083;-80
2022/09/17 09:01:10;;;;;;;1.27;0.80;;;14.30;99.90;;;;;;5030955;28;20033;-79
2022/09/17 09:04:01;;;;;;;6.07;0.65;;;14.50;99.90;;;;;;5023372;28;20404;-78
2022/09/17 09:06:35;;;;;;;0.73;0.55;;;14.50;99.90;;;;;;5026314;28;20030;-80
2022/09/17 09:09:04;;;;;;;3.53;1.20;;;14.60;99.90;;;;;;5030929;28;20480;-78
2022/09/17 09:11:30;;;;;;;4.30;1.00;;;15.00;99.90;;;;;;5029581;28;20095;-79
2022/09/17 09:14:19;;;;;;;2.78;1.00;;;15.40;99.90;;;;;;5018739;28;20091;-79
2022/09/17 09:16:45;;;;;;;2.03;0.60;;;15.70;99.90;;;;;;5011944;28;20029;-78
2022/09/17 09:19:28;;;;;;;2.95;1.60;;;15.70;99.90;;;;;;5024875;28;20046;-78
2022/09/17 09:22:23;;;;;;;0.68;0.60;;;15.50;99.90;;;;;;5039312;28;20369;-78
2022/09/17 09:25:10;;;;;;;5.65;0.60;;;15.70;99.90;;;;;;5015534;28;20026;-80
2022/09/17 09:28:05;;;;;;;2.42;0.93;;;16.10;99.90;;;;;;5019643;28;20021;-83
2022/09/17 09:31:00;;;;;;;4.68;1.52;;;15.80;99.90;;;;;;5012483;28;20029;-85
2022/09/17 09:33:34;;;;;;;1.10;0.70;;;15.80;99.90;;;;;;5030350;28;20041;-83
2022/09/17 09:35:59;;;;;;;6.82;1.05;;;15.80;99.90;;;;;;5031813;28;20021;-86
2022/09/17 09:38:40;;;;;;;1.67;0.80;;;15.40;99.90;;;;;;5030722;28;20633;-78
2022/09/17 09:41:10;;;;;;;4.27;1.20;;;15.10;99.90;;;;;;5028088;28;20037;-78
2022/09/17 09:44:02;;;;;;;6.53;1.27;;;14.90;99.90;;;;;;5032636;28;20725;-76
2022/09/17 09:47:05;;;;;;;3.50;0.73;;;14.70;99.90;;;;;;5035300;28;20265;-75
2022/09/17 09:49:46;;;;;;;6.88;1.40;;;15.00;99.90;;;;;;5032755;28;20029;-77
2022/09/17 09:52:38;;;;;;;1.80;0.60;;;15.00;99.90;;;;;;5032624;28;20113;-77
2022/09/17 09:55:31;;;;;;;4.07;0.80;;;15.40;99.90;;;;;;5031965;28;20996;-80
2022/09/17 09:58:28;;;;;;;4.18;0.95;;;15.40;99.90;;;;;;5033553;28;20129;-80
2022/09/17 10:00:53;;;;;;;3.80;0.73;;;15.10;99.90;;;;;;5031115;28;20078;-82
2022/09/17 10:03:22;;;;;;;3.55;1.05;;;14.50;99.90;;;;;;5027206;28;20025;-76
2022/09/17 10:05:57;;;;;;;2.75;1.38;;;14.30;99.90;;;;;;5021220;28;20481;-77
2022/09/17 10:08:23;;;;;;;1.08;0.88;;;14.50;99.90;;;;;;5023246;28;20033;-77
2022/09/17 10:11:04;;;;;;;3.75;2.17;;;15.00;99.90;;;;;;5024086;28;20030;-80
2022/09/17 10:13:32;;;;;;;0.90;0.70;;;15.50;99.90;;;;;;5021783;28;20037;-81
2022/09/17 10:16:18;;;;;;;3.42;0.65;;;15.70;99.90;;;;;;5019755;28;20040;-80
2022/09/17 10:18:48;;;;;;;0.40;0.40;;;17.70;99.90;;;;;;5018429;28;20053;-80
2022/09/17 10:21:28;;;;;;;3.58;1.00;;;21.60;87.20;;;;;;5020874;28;20029;-77
2022/09/17 10:23:54;;;;;;;4.25;1.10;;;24.40;63.60;;;;;;5019181;28;20086;-79
2022/09/17 10:26:28;;;;;;;7.47;1.25;;;23.70;59.80;;;;;;5032184;28;20029;-79
2022/09/17 10:29:15;;;;;;;1.23;0.63;;;21.00;67.10;;;;;;5023630;28;20384;-77
2022/09/17 10:31:55;;;;;;;3.25;1.27;;;18.40;80.60;;;;;;5022805;28;20026;-77
2022/09/17 10:34:26;;;;;;;0.93;0.85;;;13.30;99.90;;;;;;5014193;28;20129;-77
2022/09/17 10:36:54;;;;;;;0.40;0.40;;;12.60;99.90;;;;;;5021035;28;20037;-76
2022/09/17 10:39:26;;;;;;;4.38;0.70;;;12.40;99.90;;;;;;5028923;28;20048;-76
2022/09/17 10:41:55;;;;;;;;;;;12.40;99.90;;;;;;5024743;28;20037;-77
2022/09/17 10:44:23;;;;;;;0.65;0.55;;;12.40;99.90;;;;;;5021866;28;19909;-77
2022/09/17 10:46:50;;;;;;;3.30;0.70;;;12.70;99.90;;;;;;5022668;28;20021;-78
2022/09/17 10:49:33;;;;;;;1.52;0.77;;;13.60;99.90;;;;;;5021240;28;20132;-76
2022/09/17 10:52:19;;;;;;;1.00;0.82;;;14.80;99.90;;;;;;5026213;28;20029;-77
2022/09/17 10:55:18;;;;;;;5.30;1.48;;;15.00;99.90;;;;;;5024352;28;20068;-77
2022/09/17 10:58:10;;;;;;;1.60;1.05;;;14.20;99.90;;;;;;5028413;28;20025;-77
2022/09/17 11:00:58;;;;;;;;;;;14.50;99.90;;;;;;5018840;28;20067;-78
2022/09/17 11:03:50;;;;;;;1.90;1.17;;;14.70;99.90;;;;;;5023699;28;19974;-77
2022/09/17 11:06:34;;;;;;;3.05;0.70;;;14.20;99.90;;;;;;5013988;28;20031;-77
2022/09/17 11:09:28;;;;;;;2.15;1.63;;;14.50;99.90;;;;;;5022191;28;20029;-76
2022/09/17 11:12:32;;;;;;;1.27;0.80;;;13.60;99.90;;;;;;5016791;28;20361;-76
2022/09/17 11:15:26;;;;;;;0.93;0.43;;;13.50;99.90;;;;;;5015496;28;20103;-77
2022/09/17 11:18:05;;;;;;;1.08;0.93;;;13.60;99.90;;;;;;5021958;28;20535;-77
2022/09/17 11:21:07;;;;;;;1.95;0.60;;;13.60;99.90;;;;;;5015639;28;20094;-77
2022/09/17 11:23:42;;;;;;;5.13;0.55;;;13.50;99.90;;;;;;5021037;28;20038;-74
2022/09/17 11:26:11;;;;;;;4.38;0.95;;;13.40;99.90;;;;;;5017325;28;20203;-76
2022/09/17 11:28:48;;;;;;;0.68;0.57;;;15.20;99.90;;;;;;5018786;28;20351;-76
2022/09/17 11:31:36;;;;;;;5.07;1.00;;;17.00;99.90;;;;;;5022407;28;20391;-76
2022/09/17 11:34:09;;;;;;;3.15;1.35;;;17.20;99.90;;;;;;5023487;28;20032;-75
2022/09/17 11:36:57;;;;;;;1.23;0.85;;;15.00;99.90;;;;;;5014428;28;20033;-76
2022/09/17 11:39:40;;;;;;;0.70;0.63;;;13.60;99.90;;;;;;5019589;28;20022;-76
2022/09/17 11:42:25;;;;;;;3.10;1.02;;;12.20;99.90;;;;;;5023965;28;20216;-75
2022/09/17 11:45:01;;;;;;;4.10;1.00;;;12.30;99.90;;;;;;5015065;28;20037;-74
2022/09/17 11:47:36;;;;;;;1.05;0.85;;;12.20;99.90;;;;;;5023632;28;20021;-75
2022/09/17 11:50:08;;;;;;;3.17;0.73;;;12.70;99.90;;;;;;5021343;28;20052;-75
2022/09/17 11:52:45;;;;;;;1.42;0.68;;;13.50;99.90;;;;;;5017965;28;20033;-81
2022/09/17 11:55:23;;;;;;;2.80;0.88;;;13.70;99.90;;;;;;5019511;28;20037;-77
2022/09/17 11:57:56;;;;;;;10.48;1.45;;;14.00;99.90;;;;;;5023496;28;20087;-77
2022/09/17 12:00:22;;;;;;;3.08;1.50;;;16.90;99.90;;;;;;5020746;28;20119;-79
2022/09/17 12:02:56;;;;;;;1.85;1.00;;;16.90;99.90;;;;;;5020672;28;20576;-80
2022/09/17 12:05:30;;;;;;;1.83;1.13;;;19.70;99.90;;;;;;5024721;28;20088;-85
2022/09/17 12:08:13;;;;;;;0.63;0.63;;;19.60;99.90;;;;;;5024179;28;20056;-88
2022/09/17 12:10:59;;;;;;;3.30;1.10;;;20.10;99.90;;;;;;5018980;28;20099;-83
2022/09/17 12:13:35;;;;;;;2.35;0.82;;;20.90;99.90;;;;;;5016713;28;20021;-85
2022/09/17 12:16:19;;;;;;;0.75;0.70;;;20.00;99.90;;;;;;5021296;28;20104;-78
2022/09/17 12:19:18;;;;;;;0.40;0.40;;;18.30;99.90;;;;;;5019267;28;20054;-76
2022/09/17 12:21:48;;;;;;;1.25;0.63;;;17.70;99.90;;;;;;5038270;28;20488;-76
2022/09/17 12:24:23;;;;;;;0.93;0.57;;;19.60;98.70;;;;;;5020076;28;20033;-79
2022/09/17 12:27:12;;;;;;;0.75;0.55;;;18.90;93.70;;;;;;5022918;28;20038;-77
2022/09/17 12:29:59;;;;;;;0.40;0.30;;;18.20;99.90;;;;;;5021831;28;20124;-77
2022/09/17 12:32:53;;;;;;;0.70;0.30;;;18.10;98.70;;;;;;5020143;28;20037;-78
2022/09/17 12:35:19;;;;;;;1.45;0.43;;;17.20;97.20;;;;;;5020449;28;20033;-76
2022/09/17 12:38:21;;;;;;;3.95;0.50;;;16.30;99.90;;;;;;5027958;28;20033;-77
2022/09/17 12:40:56;;;;;;;0.60;0.60;;;16.20;99.90;;;;;;5022175;28;20111;-78
2022/09/17 12:43:40;;;;;;;1.08;0.60;;;16.70;99.90;;;;;;5021882;28;20029;-77
2022/09/17 12:46:41;;;;;;;0.77;0.50;;;17.20;93.50;;;;;;5026283;28;20055;-76
2022/09/17 12:49:34;;;;;;;1.38;0.50;;;16.30;99.90;;;;;;5023947;28;20026;-75
2022/09/17 12:52:05;;;;;;;3.85;0.70;;;15.90;99.90;;;;;;5021446;28;20075;-73
2022/09/17 12:55:06;;;;;;;3.83;0.90;;;21.00;82.40;;;;;;5020495;28;20029;-78
2022/09/17 12:57:56;;;;;;;5.93;1.03;;;26.30;58.50;;;;;;5028322;28;20500;-77
2022/09/17 13:00:21;;;;;;;2.90;0.75;;;28.10;54.20;;;;;;5024796;28;20284;-76
2022/09/17 13:03:02;;;;;;;5.70;1.00;;;23.10;56.30;;;;;;5019947;28;20040;-77
2022/09/17 13:06:09;;;;;;;6.05;1.17;;;20.00;69.50;;;;;;5022146;28;20045;-77
2022/09/17 13:08:59;;;;;;;3.67;1.30;;;23.70;59.60;;;;;;5027236;28;20603;-75
2022/09/17 13:11:55;;;;;;;7.18;1.88;;;24.60;52.80;;;;;;5022519;28;20034;-74
2022/09/17 13:14:50;;;;;;;9.30;1.65;;;26.80;52.80;;;;;;5023942;28;20047;-77
2022/09/17 13:17:30;;;;;;;2.75;1.30;;;28.80;45.00;;;;;;5025303;28;20113;-76
2022/09/17 13:20:04;;;;;;;1.30;0.82;;;28.30;43.70;;;;;;5019549;28;20091;-76